Burbank, SD (57010)

2:47 AM CDT on September 16, 2014 (GMT -0500)
Rural Elk Point | Change Station
CLOSE
Current Station
Personal Weather Station
Location: Elk Point, SD
Elevation: 1119 ft
Nearby Weather Stations

Elev 1119 ft 42.63 °N, 96.64 °W | Updated 1 minute ago

Clear
Clear
39.4 °F
Feels Like 39 °F
N
1.6
Wind Variable Wind from North
Gusts 1.6 mph

Today
High -- | Low -- °F
--% Chance of Precip.
Yesterday
High -- | Low -- °F
Precip. -- in
7:08 AM 7:35 PM
Waning Gibbous, 48% visible
Pressure 30.24 in
Visibility 10.0 miles
Clouds Clear
Windchill 39 °F
Dew Point 38 °F
Humidity 95%
Rainfall 0.00 in
Snow Depth Not available.
UV 0 out of 12
Pollen 5.10 out of 12
Air Quality Not available.
Flu Activity Not available.
METAR KYKN 160735Z AUTO 15005KT 10SM CLR 07/04 A3024 RMK AO1

More Conditions Fewer Conditions

Pressure 30.24 in
Visibility 10.0 miles
Clouds Clear
Windchill 39 °F
Dew Point 38 °F
Humidity 95%
Rainfall 0.00 in
Snow Depth Not available.
UV 0 out of 12
Pollen 5.10 out of 12
Air Quality Not available.
Flu Activity Not available.
METAR KYKN 160735Z AUTO 15005KT 10SM CLR 07/04 A3024 RMK AO1

More Conditions Fewer Conditions

10-Day Weather Forecast

Almanac

Astronomy

Sep. 16, 2014 Rise Set
Actual Time 7:08 AM CDT 7:35 PM CDT
Civil Twilight 6:39 AM CDT 8:03 PM CDT
Nautical Twilight 6:06 AM CDT 8:37 PM CDT
Astronomical Twilight 5:31 AM CDT 9:11 PM CDT
Moon 12:12 AM CDT 3:06 PM CDT
Length of Visible Light 13h 23m
Length of Day
12h 27m
Tomorrow will be 2m 53s shorter.
Waning Gibbous, 48% of the Moon is Illuminated
Today
Waning Gibbous
Sep 24
New
Oct 1
First Quarter
Oct 8
Full
Oct 15
Last Quarter

Today's Extremes

State Highs State Lows

Community

WunderPhotos

Upload Photos

1,753,712 photos uploaded!

Nearby

Snow Depth

Station Depth Elevation
Blind Park 0 in 6890 ft

Earthquake Activity

City Distance Mag. Time & Date
No recent earthquake activity has been reported nearby.
Minimum magnitude displayed is 2.5.

Coastal Water Temperatures

Place Temperature
No Stations Reporting

Nearby Weather Stations